Spar Apus — LATT7 — position and weather

sailwx.info

Track history (hours):
 
Tides and Currents Weather Stations Pressure Air Temp Water Temp Dewpoint Dewpoint Depression Visibility Wind Speed Wind Dir Waves Ship Positions

Spar Apus

Last reported at 2018-May-25 05:00 UTC. Time now 2018-May-25 05:12 UTC.
Position N 52°28' E 004°36'.

Length 200 m; draft 7.1 m.

Type: Cargo ship. MMSI: 258075000.

Date/timePositionNaut miles runAvg speedWind from/ knotsBaromVisibWave heightAir tempDewpointWater temp
2018-May-25 05:00N 52°28' E 004°36'0 0.0
2018-May-25 04:30N 52°28' E 004°36'0 0.0
2018-May-25 04:00N 52°28' E 004°36'0 0.0
2018-May-25 03:30N 52°28' E 004°36'0 0.0
2018-May-25 03:00N 52°28' E 004°36'0 0.5
2018-May-25 02:30N 52°28' E 004°36'2 3.6
2018-May-25 02:00N 52°28' E 004°33'510.9
2018-May-25 01:30N 52°29' E 004°24'5 9.2
2018-May-25 01:00N 52°30' E 004°17'5 9.5
2018-May-25 00:30N 52°30' E 004°09'4 7.6
2018-May-25 00:00N 52°28' E 004°04'4 8.4
2018-May-24 23:30N 52°26' E 003°58'1 1.9
2018-May-24 23:00N 52°26' E 003°57'0 0.0
2018-May-24 22:30N 52°26' E 003°57'0 0.1
2018-May-24 21:57N 52°26' E 003°57'0 0.3
2018-May-24 21:30N 52°26' E 003°56'0 0.0
2018-May-24 21:00N 52°26' E 003°56'0 0.0
2018-May-24 20:21N 52°26' E 003°56'0 0.0
2018-May-24 20:00N 52°26' E 003°56'0 0.0
2018-May-24 17:04N 52°26' E 003°57'0 0.1
2018-May-24 16:58N 52°26' E 003°57'0 0.0
2018-May-24 16:25N 52°26' E 003°57'0 0.1
2018-May-24 15:55N 52°26' E 003°57'0 0.0
2018-May-24 15:25N 52°26' E 003°57'0 0.0
2018-May-24 14:55N 52°26' E 003°57'0 0.1
2018-May-24 14:25N 52°26' E 003°57'0 0.2
2018-May-24 13:58N 52°26' E 003°57'0 0.1
2018-May-24 13:28N 52°26' E 003°57'0 0.0
2018-May-24 08:16N 52°26' E 003°56'0 0.0
2018-May-24 06:58N 52°26' E 003°56'0 0.0
2018-May-24 06:22N 52°26' E 003°56'0 0.1
2018-May-24 05:58N 52°26' E 003°56'0 0.0
2018-May-24 05:04N 52°26' E 003°56'0 0.1
2018-May-24 04:55N 52°26' E 003°56'0 0.0
2018-May-24 04:25N 52°26' E 003°56'0 0.0
2018-May-24 03:55N 52°26' E 003°56'0 0.0
2018-May-24 03:25N 52°26' E 003°57'0 0.0
2018-May-24 02:52N 52°26' E 003°57'0 0.0
2018-May-24 02:28N 52°26' E 003°56'0 0.0
2018-May-24 01:46N 52°26' E 003°57'0 0.1
2018-May-24 01:22N 52°26' E 003°57'0 0.3
2018-May-24 00:58N 52°26' E 003°56'0 0.2
2018-May-24 00:28N 52°26' E 003°57'0 0.0
2018-May-23 23:58N 52°26' E 003°57'0 0.0
2018-May-23 23:28N 52°26' E 003°57'0 0.0
2018-May-23 22:58N 52°26' E 003°57'0 0.0
2018-May-23 22:28N 52°26' E 003°57'0 0.1
2018-May-23 21:58N 52°26' E 003°57'0 0.1
2018-May-23 21:28N 52°26' E 003°57'0 0.1
2018-May-23 20:58N 52°26' E 003°57'0 0.2
2018-May-23 20:28N 52°26' E 003°57'0 0.0
2018-May-23 19:49N 52°26' E 003°56'0 0.1
2018-May-23 19:25N 52°26' E 003°57'0 0.0
2018-May-23 18:55N 52°26' E 003°57'0 0.0
2018-May-23 18:22N 52°26' E 003°57'0 0.0
2018-May-23 17:49N 52°26' E 003°56'0 0.0
2018-May-23 17:19N 52°26' E 003°57'0 0.0
2018-May-23 16:58N 52°26' E 003°57'0 0.0
2018-May-23 16:25N 52°26' E 003°57'0 0.0
2018-May-23 15:55N 52°26' E 003°57'0 0.0
2018-May-23 15:25N 52°26' E 003°57'0 0.0
2018-May-23 14:58N 52°26' E 003°57'0 0.0
2018-May-23 14:28N 52°26' E 003°57'0 0.0
2018-May-23 13:46N 52°26' E 003°57'0 0.1
2018-May-23 13:28N 52°26' E 003°57'0 0.0
2018-May-23 12:55N 52°26' E 003°57'0 0.0
2018-May-23 12:25N 52°26' E 003°57'0 0.2
2018-May-23 11:55N 52°26' E 003°57'0 0.1
2018-May-23 11:28N 52°26' E 003°57'0 0.0
2018-May-23 10:58N 52°26' E 003°57'0 0.0
2018-May-23 10:28N 52°26' E 003°57'0 0.0
2018-May-23 09:58N 52°26' E 003°57'0 0.0
2018-May-23 09:28N 52°26' E 003°57'0 0.0
2018-May-23 08:58N 52°26' E 003°57'0 0.0
2018-May-23 08:28N 52°26' E 003°57'0 0.1
2018-May-23 07:55N 52°26' E 003°57'0 0.2
2018-May-23 07:16N 52°26' E 003°57'0 0.1
2018-May-23 06:58N 52°26' E 003°57'0 0.0
2018-May-23 06:25N 52°26' E 003°57'0 0.0
2018-May-23 05:58N 52°26' E 003°57'0 0.1
2018-May-23 05:28N 52°26' E 003°56'0 0.0
2018-May-23 04:55N 52°26' E 003°57'0 0.0
2018-May-23 04:25N 52°26' E 003°57'0 0.0
2018-May-23 03:58N 52°26' E 003°57'0 0.0
2018-May-23 03:04N 52°26' E 003°57'0 0.0
2018-May-23 02:55N 52°26' E 003°57'0 0.0
2018-May-23 02:22N 52°26' E 003°57'0 0.0
2018-May-23 01:55N 52°26' E 003°57'0 0.0
2018-May-23 01:25N 52°26' E 003°57'0 0.0
2018-May-23 00:52N 52°26' E 003°57'0 0.0
2018-May-23 00:16N 52°26' E 003°57'0 0.0
2018-May-22 23:58N 52°26' E 003°57'0 0.0
2018-May-22 23:25N 52°26' E 003°57'0 0.2
2018-May-22 22:58N 52°26' E 003°57'0 0.1
2018-May-22 22:25N 52°26' E 003°57'0 0.0
2018-May-22 21:58N 52°26' E 003°57'0 0.0
2018-May-22 21:28N 52°26' E 003°57'0 0.0
2018-May-22 20:58N 52°26' E 003°57'0 0.0
2018-May-22 20:28N 52°26' E 003°57'0 0.1
2018-May-22 19:58N 52°26' E 003°57'0 0.1
2018-May-22 19:28N 52°26' E 003°57'0 0.2
2018-May-22 18:55N 52°26' E 003°57'0 0.1
2018-May-22 18:28N 52°26' E 003°56'0 0.0
2018-May-22 17:58N 52°26' E 003°56'0 0.0
2018-May-22 17:22N 52°26' E 003°57'0 0.0
2018-May-22 16:55N 52°26' E 003°56'0 0.0
2018-May-22 16:28N 52°26' E 003°57'0 0.0
2018-May-22 15:55N 52°26' E 003°57'0 0.0
2018-May-22 15:28N 52°26' E 003°57'0 0.0
2018-May-22 14:58N 52°26' E 003°57'0 0.0
2018-May-22 14:19N 52°26' E 003°57'0 0.0
2018-May-22 13:55N 52°26' E 003°57'0 0.0
2018-May-22 13:28N 52°26' E 003°57'0 0.0
2018-May-22 12:58N 52°26' E 003°57'0 0.0
2018-May-22 12:25N 52°26' E 003°57'0 0.0
2018-May-22 11:58N 52°26' E 003°57'0 0.1
2018-May-22 11:19N 52°26' E 003°57'0 0.2
2018-May-22 10:58N 52°26' E 003°57'0 0.1
2018-May-22 10:25N 52°26' E 003°57'0 0.1
2018-May-22 09:58N 52°26' E 003°57'0 0.0
2018-May-22 09:28N 52°26' E 003°57'0 0.0
2018-May-22 08:58N 52°26' E 003°57'0 0.0
2018-May-22 08:28N 52°26' E 003°57'0 0.0
2018-May-22 07:58N 52°26' E 003°57'0 0.0
2018-May-22 07:28N 52°26' E 003°57'0 0.0
2018-May-22 06:58N 52°26' E 003°57'0 0.1
2018-May-22 06:25N 52°26' E 003°57'0 0.4
2018-May-22 05:55N 52°26' E 003°57'0 0.0
2018-May-22 05:25N 52°26' E 003°57'0 0.0
2018-May-22 04:58N 52°26' E 003°56'0 0.0
2018-May-22 04:25N 52°26' E 003°56'0 0.0
2018-May-22 03:49N 52°26' E 003°56'0 0.0
2018-May-22 03:01N 52°26' E 003°56'0 0.1
2018-May-22 02:55N 52°26' E 003°56'0 0.0
2018-May-22 02:25N 52°26' E 003°57'0 0.0
2018-May-22 01:52N 52°26' E 003°56'0 0.0
2018-May-22 01:28N 52°26' E 003°56'0 0.1
2018-May-22 00:58N 52°26' E 003°57'0 0.1
2018-May-22 00:25N 52°26' E 003°56'0 0.0
2018-May-21 23:58N 52°26' E 003°56'0 0.0
2018-May-21 23:28N 52°26' E 003°56'0 0.1
2018-May-21 22:58N 52°26' E 003°56'0 0.2
2018-May-21 22:25N 52°26' E 003°57'0 0.1
2018-May-21 21:58N 52°26' E 003°57'0 0.0
2018-May-21 21:25N 52°26' E 003°57'0 0.0
2018-May-21 20:55N 52°26' E 003°57'0 0.0
2018-May-21 20:25N 52°26' E 003°57'0 0.0
2018-May-21 19:58N 52°26' E 003°57'0 0.0
2018-May-21 19:28N 52°26' E 003°57'0 0.0
2018-May-21 18:58N 52°26' E 003°57'0 0.1
2018-May-21 18:28N 52°26' E 003°57'0 0.3
2018-May-21 17:58N 52°26' E 003°56'0 0.1
2018-May-21 17:28N 52°26' E 003°56'0 0.0
2018-May-21 16:52N 52°26' E 003°56'0 0.0
2018-May-21 16:13N 52°26' E 003°56'0 0.2
2018-May-21 15:58N 52°26' E 003°56'1 1.6
2018-May-21 15:30N 52°26' E 003°55'2 4.2
2018-May-21 15:00N 52°27' E 003°53'5 9.9
2018-May-21 14:30N 52°32' E 003°50'612.5
2018-May-21 14:00N 52°38' E 003°53'612.8
2018-May-21 13:30N 52°44' E 003°55'712.8
2018-May-21 13:00N 52°51' E 003°58'612.5
2018-May-21 12:30N 52°57' E 003°59'611.7
2018-May-21 12:00N 53°01' E 004°06'611.7
2018-May-21 11:30N 53°04' E 004°14'510.7
2018-May-21 11:00N 53°08' E 004°20'510.3
2018-May-21 10:30N 53°12' E 004°25'510.1
2018-May-21 10:00N 53°17' E 004°29'510.0
2018-May-21 09:30N 53°22' E 004°31'510.0
2018-May-21 09:00N 53°26' E 004°34'510.4
2018-May-21 08:30N 53°31' E 004°36'510.2
2018-May-21 08:00N 53°36' E 004°39'510.9
2018-May-21 07:30N 53°41' E 004°42'611.4
2018-May-21 07:00N 53°46' E 004°46'611.4
2018-May-21 06:30N 53°52' E 004°49'611.4
2018-May-21 06:00N 53°57' E 004°53'611.4
2018-May-21 05:30N 54°02' E 004°57'611.2
2018-May-21 05:00N 54°07' E 005°01'510.7
2018-May-21 04:30N 54°11' E 005°08'611.6
2018-May-21 04:00N 54°11' E 005°18'611.6
2018-May-21 03:29N 54°12' E 005°28'611.7
2018-May-21 02:59N 54°12' E 005°38'611.6
2018-May-21 02:30N 54°13' E 005°48'611.4
2018-May-21 01:58N 54°14' E 005°58'611.0
2018-May-21 01:26N 54°14' E 006°08'510.7
2018-May-21 00:57N 54°15' E 006°17'510.7
2018-May-21 00:30N 54°17' E 006°24'510.8
2018-May-21 00:00N 54°20' E 006°32'510.8
2018-May-20 23:30N 54°24' E 006°39'611.0
2018-May-20 23:00N 54°27' E 006°47'19 1.1
2018-May-20 05:59N 54°19' E 007°18'3 5.3
2018-May-20 05:27N 54°17' E 007°20'3 7.3
2018-May-20 05:00N 54°15' E 007°25'25 9.1
2018-May-20 02:15N 53°53' E 007°45'310.9
2018-May-20 02:00N 53°52' E 007°50'611.0
2018-May-20 01:30N 53°51' E 007°59'611.6
2018-May-20 01:00N 53°49' E 008°08'611.2
2018-May-20 00:30N 53°44' E 008°14'510.7
2018-May-20 00:00N 53°41' E 008°21'510.3
2018-May-19 23:30N 53°38' E 008°27'511.0
2018-May-19 23:00N 53°33' E 008°33'4 7.6
2018-May-19 22:30N 53°30' E 008°31'612.3
2018-May-19 22:00N 53°24' E 008°30'611.6
2018-May-19 21:30N 53°18' E 008°30'612.1
2018-May-19 21:00N 53°12' E 008°31'5 9.3
2018-May-19 20:30N 53°10' E 008°38'3 6.1
2018-May-19 20:00N 53°07' E 008°41'0 0.3
2018-May-19 19:29N 53°07' E 008°41'0 0.0
2018-May-19 18:59N 53°07' E 008°41'0 0.0
2018-May-19 18:29N 53°07' E 008°41'0 0.0
2018-May-19 17:59N 53°07' E 008°41'0 0.0
2018-May-19 17:29N 53°07' E 008°41'0 0.0
2018-May-19 16:59N 53°07' E 008°41'0 0.0
2018-May-19 16:29N 53°07' E 008°41'0 0.0
2018-May-19 15:59N 53°07' E 008°41'0 0.0
2018-May-19 15:29N 53°07' E 008°41'0 0.0
2018-May-19 14:59N 53°07' E 008°41'0 0.0
2018-May-19 14:29N 53°07' E 008°41'0 0.0
2018-May-19 13:59N 53°07' E 008°41'0 0.0
2018-May-19 13:29N 53°07' E 008°41'0 0.0
2018-May-19 12:59N 53°07' E 008°41'0 0.0
2018-May-19 12:29N 53°07' E 008°41'0 0.0
2018-May-19 11:59N 53°07' E 008°41'0 0.0
2018-May-19 11:29N 53°07' E 008°41'0 0.0
2018-May-19 10:59N 53°07' E 008°41'0 0.0
2018-May-19 10:29N 53°07' E 008°41'0 0.0
2018-May-19 09:59N 53°07' E 008°41'0 0.0
2018-May-19 09:29N 53°07' E 008°41'0 0.0
2018-May-19 08:59N 53°07' E 008°41'0 0.0
2018-May-19 08:29N 53°07' E 008°41'0 0.0
2018-May-19 07:59N 53°07' E 008°41'0 0.0
2018-May-19 07:29N 53°07' E 008°41'0 0.0
2018-May-19 06:59N 53°07' E 008°41'0 0.0
2018-May-19 06:29N 53°07' E 008°41'0 0.0
2018-May-19 05:59N 53°07' E 008°41'0 0.0
2018-May-19 05:29N 53°07' E 008°41'0 0.0
2018-May-19 04:59N 53°07' E 008°41'0 0.0
2018-May-19 04:29N 53°07' E 008°41'0 0.0
2018-May-19 03:59N 53°07' E 008°41'0 0.0
2018-May-19 03:29N 53°07' E 008°41'0 0.0
2018-May-19 02:59N 53°07' E 008°41'0 0.0
2018-May-19 02:29N 53°07' E 008°41'0 0.0
2018-May-19 01:59N 53°07' E 008°41'0 0.0
2018-May-19 01:29N 53°07' E 008°41'0 0.0
2018-May-19 00:59N 53°07' E 008°41'0 0.0
2018-May-19 00:29N 53°07' E 008°41'0 0.0
2018-May-18 23:59N 53°07' E 008°41'0 0.0
2018-May-18 23:29N 53°07' E 008°41'0 0.0
2018-May-18 22:59N 53°07' E 008°41'0 0.0
2018-May-18 22:29N 53°07' E 008°41'0 0.0
2018-May-18 21:59N 53°07' E 008°41'0 0.0
2018-May-18 21:29N 53°07' E 008°41'0 0.0
2018-May-18 20:59N 53°07' E 008°41'0 0.0
2018-May-18 20:29N 53°07' E 008°41'0 0.0
2018-May-18 19:59N 53°07' E 008°41'0 0.0
2018-May-18 19:29N 53°07' E 008°41'0 0.0
2018-May-18 18:59N 53°07' E 008°41'0 0.0
2018-May-18 18:29N 53°07' E 008°41'0 0.0
2018-May-18 17:59N 53°07' E 008°41'0 0.0
2018-May-18 17:29N 53°07' E 008°41'0 0.0
2018-May-18 16:59N 53°07' E 008°41'0 0.0
2018-May-18 16:29N 53°07' E 008°41'0 0.0
2018-May-18 15:59N 53°07' E 008°41'0 0.0
2018-May-18 15:29N 53°07' E 008°41'0 0.0
2018-May-18 14:59N 53°07' E 008°41'0 0.0
2018-May-18 14:29N 53°07' E 008°41'0 0.0
2018-May-18 13:59N 53°07' E 008°41'0 0.0
2018-May-18 13:30N 53°07' E 008°41'0 0.0
2018-May-18 12:59N 53°07' E 008°41'0 0.0
2018-May-18 12:29N 53°07' E 008°41'0 0.0
2018-May-18 11:59N 53°07' E 008°41'0 0.0
2018-May-18 11:29N 53°07' E 008°41'0 0.0
2018-May-18 10:59N 53°07' E 008°41'0 0.0
2018-May-18 10:29N 53°07' E 008°41'0 0.0
2018-May-18 09:59N 53°07' E 008°41'0 0.0
2018-May-18 09:29N 53°07' E 008°41'0 0.0
2018-May-18 08:59N 53°07' E 008°41'0 0.0
2018-May-18 08:29N 53°07' E 008°41'0 0.0
2018-May-18 08:00N 53°07' E 008°41'0 0.0
2018-May-18 07:29N 53°07' E 008°41'0 0.0
2018-May-18 06:59N 53°07' E 008°41'0 0.0
2018-May-18 06:29N 53°07' E 008°41'0 0.0
2018-May-18 05:59N 53°07' E 008°41'0 0.0
2018-May-18 05:29N 53°07' E 008°41'0 0.0
2018-May-18 04:59N 53°07' E 008°41'0 0.0
2018-May-18 04:29N 53°07' E 008°41'0 0.0
2018-May-18 03:59N 53°07' E 008°41'0 0.0
2018-May-18 03:29N 53°07' E 008°41'0 0.0
2018-May-18 02:59N 53°07' E 008°41'0 0.0
2018-May-18 02:29N 53°07' E 008°41'0 0.0
2018-May-18 01:59N 53°07' E 008°41'0 0.0
2018-May-18 01:29N 53°07' E 008°41'0 0.0
2018-May-18 00:59N 53°07' E 008°41'0 0.0
2018-May-18 00:29N 53°07' E 008°41'0 0.0
2018-May-17 23:59N 53°07' E 008°41'0 0.0
2018-May-17 23:29N 53°07' E 008°41'0 0.0
2018-May-17 22:59N 53°07' E 008°41'0 0.0
2018-May-17 22:29N 53°07' E 008°41'0 0.0
2018-May-17 21:59N 53°07' E 008°41'0 0.0
2018-May-17 21:29N 53°07' E 008°41'0 0.0
2018-May-17 20:59N 53°07' E 008°41'0 0.0
2018-May-17 20:29N 53°07' E 008°41'0 0.0
2018-May-17 19:59N 53°07' E 008°41'0 0.0
2018-May-17 19:29N 53°07' E 008°41'0 0.0
2018-May-17 18:59N 53°07' E 008°41'0 0.0
2018-May-17 18:29N 53°07' E 008°41'0 0.0
2018-May-17 17:59N 53°07' E 008°41'0 0.0
2018-May-17 17:29N 53°07' E 008°41'0 0.0
2018-May-17 16:59N 53°07' E 008°41'0 0.0
2018-May-17 16:29N 53°07' E 008°41'0 0.0
2018-May-17 15:59N 53°07' E 008°41'0 0.0
2018-May-17 15:29N 53°07' E 008°41'0 0.0
2018-May-17 15:00N 53°07' E 008°41'2 4.0
2018-May-17 14:30N 53°08' E 008°38'4 7.0
2018-May-17 14:00N 53°11' E 008°34'4 8.7
2018-May-17 13:30N 53°14' E 008°29'611.6
2018-May-17 13:00N 53°20' E 008°29'611.5
2018-May-17 12:31N 53°25' E 008°30'611.2
2018-May-17 12:00N 53°31' E 008°32'4 7.2
2018-May-17 11:30N 53°34' E 008°32'510.9
2018-May-17 11:00N 53°38' E 008°26'612.3
2018-May-17 10:30N 53°43' E 008°18'4 9.0
2018-May-17 10:00N 53°45' E 008°12'4 8.9
2018-May-17 09:30N 53°49' E 008°07'5 8.3
2018-May-17 08:52N 53°51' E 007°59'4 9.0
2018-May-17 08:27N 53°52' E 007°53'3 0.4
2018-May-17 00:16N 53°55' E 007°51'0 0.0
2018-May-16 16:34N 53°55' E 007°51'0 0.0
2018-May-16 13:43N 53°55' E 007°51'0 0.0
2018-May-16 10:16N 53°55' E 007°51'0 0.0
2018-May-16 09:58N 53°55' E 007°51'0 0.0
2018-May-16 09:28N 53°55' E 007°51'0 0.0
2018-May-16 08:55N 53°55' E 007°51'0 0.0
2018-May-16 08:28N 53°55' E 007°51'0 0.0
2018-May-16 07:55N 53°55' E 007°51'0 0.0
2018-May-16 07:28N 53°55' E 007°51'0 0.1
2018-May-16 06:55N 53°55' E 007°51'0 0.1
2018-May-16 05:16N 53°55' E 007°51'0 0.1
2018-May-16 04:55N 53°55' E 007°51'0 0.0
2018-May-16 04:28N 53°55' E 007°51'0 0.0
2018-May-16 03:58N 53°55' E 007°51'0 0.0
2018-May-16 03:19N 53°55' E 007°51'0 0.0
2018-May-16 02:49N 53°55' E 007°51'0 0.0
2018-May-16 02:28N 53°55' E 007°51'0 0.0
2018-May-16 01:55N 53°55' E 007°51'0 0.0
2018-May-15 21:31N 53°55' E 007°51'0 0.1
2018-May-15 21:25N 53°55' E 007°51'0 0.0
2018-May-15 20:49N 53°55' E 007°51'0 0.0
2018-May-15 16:31N 53°55' E 007°51'0 0.0
2018-May-15 16:22N 53°55' E 007°51'0 0.1
2018-May-15 15:55N 53°55' E 007°51'0 0.0
2018-May-15 15:28N 53°55' E 007°51'0 0.0
2018-May-15 14:58N 53°55' E 007°51'0 0.0
2018-May-15 14:28N 53°55' E 007°51'0 0.0
2018-May-15 13:52N 53°55' E 007°51'0 0.0
2018-May-15 13:25N 53°55' E 007°51'0 0.0
2018-May-15 12:58N 53°55' E 007°51'0 0.4
2018-May-15 12:28N 53°55' E 007°51'0 0.1
2018-May-15 11:58N 53°55' E 007°51'0 0.1
2018-May-15 11:28N 53°55' E 007°51'0 0.0
2018-May-15 10:52N 53°55' E 007°51'0 0.0
2018-May-15 10:28N 53°55' E 007°51'0 0.0
2018-May-15 09:58N 53°55' E 007°51'0 0.0
2018-May-15 09:28N 53°55' E 007°51'0 0.0
2018-May-15 08:58N 53°55' E 007°51'0 0.0
2018-May-15 08:25N 53°55' E 007°51'0 0.0
2018-May-15 07:55N 53°55' E 007°51'0 0.0
2018-May-15 07:28N 53°55' E 007°51'0 0.0
2018-May-15 06:58N 53°55' E 007°51'0 0.0
2018-May-15 06:28N 53°55' E 007°51'0 0.2
2018-May-15 05:46N 53°55' E 007°51'0 0.1
2018-May-15 05:28N 53°55' E 007°51'  
Track history (hours):
 
Tides and Currents Weather Stations Pressure Air Temp Water Temp Dewpoint Dewpoint Depression Visibility Wind Speed Wind Dir Waves Ship Positions

Spar Apus

Last reported at 2018-May-25 05:00 UTC. Time now 2018-May-25 05:12 UTC.
Position N 52°28' E 004°36'.

Length 200 m; draft 7.1 m.

Type: Cargo ship. MMSI: 258075000.

Date/timePositionNaut miles runAvg speedWind from/ knotsBaromVisibWave heightAir tempDewpointWater temp
2018-May-25 05:00N 52°28' E 004°36'0 0.0
2018-May-25 04:30N 52°28' E 004°36'0 0.0
2018-May-25 04:00N 52°28' E 004°36'0 0.0
2018-May-25 03:30N 52°28' E 004°36'0 0.0
2018-May-25 03:00N 52°28' E 004°36'0 0.5
2018-May-25 02:30N 52°28' E 004°36'2 3.6
2018-May-25 02:00N 52°28' E 004°33'510.9
2018-May-25 01:30N 52°29' E 004°24'5 9.2
2018-May-25 01:00N 52°30' E 004°17'5 9.5
2018-May-25 00:30N 52°30' E 004°09'4 7.6
2018-May-25 00:00N 52°28' E 004°04'4 8.4
2018-May-24 23:30N 52°26' E 003°58'1 1.9
2018-May-24 23:00N 52°26' E 003°57'0 0.0
2018-May-24 22:30N 52°26' E 003°57'0 0.1
2018-May-24 21:57N 52°26' E 003°57'0 0.3
2018-May-24 21:30N 52°26' E 003°56'0 0.0
2018-May-24 21:00N 52°26' E 003°56'0 0.0
2018-May-24 20:21N 52°26' E 003°56'0 0.0
2018-May-24 20:00N 52°26' E 003°56'0 0.0
2018-May-24 17:04N 52°26' E 003°57'0 0.1
2018-May-24 16:58N 52°26' E 003°57'0 0.0
2018-May-24 16:25N 52°26' E 003°57'0 0.1
2018-May-24 15:55N 52°26' E 003°57'0 0.0
2018-May-24 15:25N 52°26' E 003°57'0 0.0
2018-May-24 14:55N 52°26' E 003°57'0 0.1
2018-May-24 14:25N 52°26' E 003°57'0 0.2
2018-May-24 13:58N 52°26' E 003°57'0 0.1
2018-May-24 13:28N 52°26' E 003°57'0 0.0
2018-May-24 08:16N 52°26' E 003°56'0 0.0
2018-May-24 06:58N 52°26' E 003°56'0 0.0
2018-May-24 06:22N 52°26' E 003°56'0 0.1
2018-May-24 05:58N 52°26' E 003°56'0 0.0
2018-May-24 05:04N 52°26' E 003°56'0 0.1
2018-May-24 04:55N 52°26' E 003°56'0 0.0
2018-May-24 04:25N 52°26' E 003°56'0 0.0
2018-May-24 03:55N 52°26' E 003°56'0 0.0
2018-May-24 03:25N 52°26' E 003°57'0 0.0
2018-May-24 02:52N 52°26' E 003°57'0 0.0
2018-May-24 02:28N 52°26' E 003°56'0 0.0
2018-May-24 01:46N 52°26' E 003°57'0 0.1
2018-May-24 01:22N 52°26' E 003°57'0 0.3
2018-May-24 00:58N 52°26' E 003°56'0 0.2
2018-May-24 00:28N 52°26' E 003°57'0 0.0
2018-May-23 23:58N 52°26' E 003°57'0 0.0
2018-May-23 23:28N 52°26' E 003°57'0 0.0
2018-May-23 22:58N 52°26' E 003°57'0 0.0
2018-May-23 22:28N 52°26' E 003°57'0 0.1
2018-May-23 21:58N 52°26' E 003°57'0 0.1
2018-May-23 21:28N 52°26' E 003°57'0 0.1
2018-May-23 20:58N 52°26' E 003°57'0 0.2
2018-May-23 20:28N 52°26' E 003°57'0 0.0
2018-May-23 19:49N 52°26' E 003°56'0 0.1
2018-May-23 19:25N 52°26' E 003°57'0 0.0
2018-May-23 18:55N 52°26' E 003°57'0 0.0
2018-May-23 18:22N 52°26' E 003°57'0 0.0
2018-May-23 17:49N 52°26' E 003°56'0 0.0
2018-May-23 17:19N 52°26' E 003°57'0 0.0
2018-May-23 16:58N 52°26' E 003°57'0 0.0
2018-May-23 16:25N 52°26' E 003°57'0 0.0
2018-May-23 15:55N 52°26' E 003°57'0 0.0
2018-May-23 15:25N 52°26' E 003°57'0 0.0
2018-May-23 14:58N 52°26' E 003°57'0 0.0
2018-May-23 14:28N 52°26' E 003°57'0 0.0
2018-May-23 13:46N 52°26' E 003°57'0 0.1
2018-May-23 13:28N 52°26' E 003°57'0 0.0
2018-May-23 12:55N 52°26' E 003°57'0 0.0
2018-May-23 12:25N 52°26' E 003°57'0 0.2
2018-May-23 11:55N 52°26' E 003°57'0 0.1
2018-May-23 11:28N 52°26' E 003°57'0 0.0
2018-May-23 10:58N 52°26' E 003°57'0 0.0
2018-May-23 10:28N 52°26' E 003°57'0 0.0
2018-May-23 09:58N 52°26' E 003°57'0 0.0
2018-May-23 09:28N 52°26' E 003°57'0 0.0
2018-May-23 08:58N 52°26' E 003°57'0 0.0
2018-May-23 08:28N 52°26' E 003°57'0 0.1
2018-May-23 07:55N 52°26' E 003°57'0 0.2
2018-May-23 07:16N 52°26' E 003°57'0 0.1
2018-May-23 06:58N 52°26' E 003°57'0 0.0
2018-May-23 06:25N 52°26' E 003°57'0 0.0
2018-May-23 05:58N 52°26' E 003°57'0 0.1
2018-May-23 05:28N 52°26' E 003°56'0 0.0
2018-May-23 04:55N 52°26' E 003°57'0 0.0
2018-May-23 04:25N 52°26' E 003°57'0 0.0
2018-May-23 03:58N 52°26' E 003°57'0 0.0
2018-May-23 03:04N 52°26' E 003°57'0 0.0
2018-May-23 02:55N 52°26' E 003°57'0 0.0
2018-May-23 02:22N 52°26' E 003°57'0 0.0
2018-May-23 01:55N 52°26' E 003°57'0 0.0
2018-May-23 01:25N 52°26' E 003°57'0 0.0
2018-May-23 00:52N 52°26' E 003°57'0 0.0
2018-May-23 00:16N 52°26' E 003°57'0 0.0
2018-May-22 23:58N 52°26' E 003°57'0 0.0
2018-May-22 23:25N 52°26' E 003°57'0 0.2
2018-May-22 22:58N 52°26' E 003°57'0 0.1
2018-May-22 22:25N 52°26' E 003°57'0 0.0
2018-May-22 21:58N 52°26' E 003°57'0 0.0
2018-May-22 21:28N 52°26' E 003°57'0 0.0
2018-May-22 20:58N 52°26' E 003°57'0 0.0
2018-May-22 20:28N 52°26' E 003°57'0 0.1
2018-May-22 19:58N 52°26' E 003°57'0 0.1
2018-May-22 19:28N 52°26' E 003°57'0 0.2
2018-May-22 18:55N 52°26' E 003°57'0 0.1
2018-May-22 18:28N 52°26' E 003°56'0 0.0
2018-May-22 17:58N 52°26' E 003°56'0 0.0
2018-May-22 17:22N 52°26' E 003°57'0 0.0
2018-May-22 16:55N 52°26' E 003°56'0 0.0
2018-May-22 16:28N 52°26' E 003°57'0 0.0
2018-May-22 15:55N 52°26' E 003°57'0 0.0
2018-May-22 15:28N 52°26' E 003°57'0 0.0
2018-May-22 14:58N 52°26' E 003°57'0 0.0
2018-May-22 14:19N 52°26' E 003°57'0 0.0
2018-May-22 13:55N 52°26' E 003°57'0 0.0
2018-May-22 13:28N 52°26' E 003°57'0 0.0
2018-May-22 12:58N 52°26' E 003°57'0 0.0
2018-May-22 12:25N 52°26' E 003°57'0 0.0
2018-May-22 11:58N 52°26' E 003°57'0 0.1
2018-May-22 11:19N 52°26' E 003°57'0 0.2
2018-May-22 10:58N 52°26' E 003°57'0 0.1
2018-May-22 10:25N 52°26' E 003°57'0 0.1
2018-May-22 09:58N 52°26' E 003°57'0 0.0
2018-May-22 09:28N 52°26' E 003°57'0 0.0
2018-May-22 08:58N 52°26' E 003°57'0 0.0
2018-May-22 08:28N 52°26' E 003°57'0 0.0
2018-May-22 07:58N 52°26' E 003°57'0 0.0
2018-May-22 07:28N 52°26' E 003°57'0 0.0
2018-May-22 06:58N 52°26' E 003°57'0 0.1
2018-May-22 06:25N 52°26' E 003°57'0 0.4
2018-May-22 05:55N 52°26' E 003°57'0 0.0
2018-May-22 05:25N 52°26' E 003°57'0 0.0
2018-May-22 04:58N 52°26' E 003°56'0 0.0
2018-May-22 04:25N 52°26' E 003°56'0 0.0
2018-May-22 03:49N 52°26' E 003°56'0 0.0
2018-May-22 03:01N 52°26' E 003°56'0 0.1
2018-May-22 02:55N 52°26' E 003°56'0 0.0
2018-May-22 02:25N 52°26' E 003°57'0 0.0
2018-May-22 01:52N 52°26' E 003°56'0 0.0
2018-May-22 01:28N 52°26' E 003°56'0 0.1
2018-May-22 00:58N 52°26' E 003°57'0 0.1
2018-May-22 00:25N 52°26' E 003°56'0 0.0
2018-May-21 23:58N 52°26' E 003°56'0 0.0
2018-May-21 23:28N 52°26' E 003°56'0 0.1
2018-May-21 22:58N 52°26' E 003°56'0 0.2
2018-May-21 22:25N 52°26' E 003°57'0 0.1
2018-May-21 21:58N 52°26' E 003°57'0 0.0
2018-May-21 21:25N 52°26' E 003°57'0 0.0
2018-May-21 20:55N 52°26' E 003°57'0 0.0
2018-May-21 20:25N 52°26' E 003°57'0 0.0
2018-May-21 19:58N 52°26' E 003°57'0 0.0
2018-May-21 19:28N 52°26' E 003°57'0 0.0
2018-May-21 18:58N 52°26' E 003°57'0 0.1
2018-May-21 18:28N 52°26' E 003°57'0 0.3
2018-May-21 17:58N 52°26' E 003°56'0 0.1
2018-May-21 17:28N 52°26' E 003°56'0 0.0
2018-May-21 16:52N 52°26' E 003°56'0 0.0
2018-May-21 16:13N 52°26' E 003°56'0 0.2
2018-May-21 15:58N 52°26' E 003°56'1 1.6
2018-May-21 15:30N 52°26' E 003°55'2 4.2
2018-May-21 15:00N 52°27' E 003°53'5 9.9
2018-May-21 14:30N 52°32' E 003°50'612.5
2018-May-21 14:00N 52°38' E 003°53'612.8
2018-May-21 13:30N 52°44' E 003°55'712.8
2018-May-21 13:00N 52°51' E 003°58'612.5
2018-May-21 12:30N 52°57' E 003°59'611.7
2018-May-21 12:00N 53°01' E 004°06'611.7
2018-May-21 11:30N 53°04' E 004°14'510.7
2018-May-21 11:00N 53°08' E 004°20'510.3
2018-May-21 10:30N 53°12' E 004°25'510.1
2018-May-21 10:00N 53°17' E 004°29'510.0
2018-May-21 09:30N 53°22' E 004°31'510.0
2018-May-21 09:00N 53°26' E 004°34'510.4
2018-May-21 08:30N 53°31' E 004°36'510.2
2018-May-21 08:00N 53°36' E 004°39'510.9
2018-May-21 07:30N 53°41' E 004°42'611.4
2018-May-21 07:00N 53°46' E 004°46'611.4
2018-May-21 06:30N 53°52' E 004°49'611.4
2018-May-21 06:00N 53°57' E 004°53'611.4
2018-May-21 05:30N 54°02' E 004°57'611.2
2018-May-21 05:00N 54°07' E 005°01'510.7
2018-May-21 04:30N 54°11' E 005°08'611.6
2018-May-21 04:00N 54°11' E 005°18'611.6
2018-May-21 03:29N 54°12' E 005°28'611.7
2018-May-21 02:59N 54°12' E 005°38'611.6
2018-May-21 02:30N 54°13' E 005°48'611.4
2018-May-21 01:58N 54°14' E 005°58'611.0
2018-May-21 01:26N 54°14' E 006°08'510.7
2018-May-21 00:57N 54°15' E 006°17'510.7
2018-May-21 00:30N 54°17' E 006°24'510.8
2018-May-21 00:00N 54°20' E 006°32'510.8
2018-May-20 23:30N 54°24' E 006°39'611.0
2018-May-20 23:00N 54°27' E 006°47'19 1.1
2018-May-20 05:59N 54°19' E 007°18'3 5.3
2018-May-20 05:27N 54°17' E 007°20'3 7.3
2018-May-20 05:00N 54°15' E 007°25'25 9.1
2018-May-20 02:15N 53°53' E 007°45'310.9
2018-May-20 02:00N 53°52' E 007°50'611.0
2018-May-20 01:30N 53°51' E 007°59'611.6
2018-May-20 01:00N 53°49' E 008°08'611.2
2018-May-20 00:30N 53°44' E 008°14'510.7
2018-May-20 00:00N 53°41' E 008°21'510.3
2018-May-19 23:30N 53°38' E 008°27'511.0
2018-May-19 23:00N 53°33' E 008°33'4 7.6
2018-May-19 22:30N 53°30' E 008°31'612.3
2018-May-19 22:00N 53°24' E 008°30'611.6
2018-May-19 21:30N 53°18' E 008°30'612.1
2018-May-19 21:00N 53°12' E 008°31'5 9.3
2018-May-19 20:30N 53°10' E 008°38'3 6.1
2018-May-19 20:00N 53°07' E 008°41'0 0.3
2018-May-19 19:29N 53°07' E 008°41'0 0.0
2018-May-19 18:59N 53°07' E 008°41'0 0.0
2018-May-19 18:29N 53°07' E 008°41'0 0.0
2018-May-19 17:59N 53°07' E 008°41'0 0.0
2018-May-19 17:29N 53°07' E 008°41'0 0.0
2018-May-19 16:59N 53°07' E 008°41'0 0.0
2018-May-19 16:29N 53°07' E 008°41'0 0.0
2018-May-19 15:59N 53°07' E 008°41'0 0.0
2018-May-19 15:29N 53°07' E 008°41'0 0.0
2018-May-19 14:59N 53°07' E 008°41'0 0.0
2018-May-19 14:29N 53°07' E 008°41'0 0.0
2018-May-19 13:59N 53°07' E 008°41'0 0.0
2018-May-19 13:29N 53°07' E 008°41'0 0.0
2018-May-19 12:59N 53°07' E 008°41'0 0.0
2018-May-19 12:29N 53°07' E 008°41'0 0.0
2018-May-19 11:59N 53°07' E 008°41'0 0.0
2018-May-19 11:29N 53°07' E 008°41'0 0.0
2018-May-19 10:59N 53°07' E 008°41'0 0.0
2018-May-19 10:29N 53°07' E 008°41'0 0.0
2018-May-19 09:59N 53°07' E 008°41'0 0.0
2018-May-19 09:29N 53°07' E 008°41'0 0.0
2018-May-19 08:59N 53°07' E 008°41'0 0.0
2018-May-19 08:29N 53°07' E 008°41'0 0.0
2018-May-19 07:59N 53°07' E 008°41'0 0.0
2018-May-19 07:29N 53°07' E 008°41'0 0.0
2018-May-19 06:59N 53°07' E 008°41'0 0.0
2018-May-19 06:29N 53°07' E 008°41'0 0.0
2018-May-19 05:59N 53°07' E 008°41'0 0.0
2018-May-19 05:29N 53°07' E 008°41'0 0.0
2018-May-19 04:59N 53°07' E 008°41'0 0.0
2018-May-19 04:29N 53°07' E 008°41'0 0.0
2018-May-19 03:59N 53°07' E 008°41'0 0.0
2018-May-19 03:29N 53°07' E 008°41'0 0.0
2018-May-19 02:59N 53°07' E 008°41'0 0.0
2018-May-19 02:29N 53°07' E 008°41'0 0.0
2018-May-19 01:59N 53°07' E 008°41'0 0.0
2018-May-19 01:29N 53°07' E 008°41'0 0.0
2018-May-19 00:59N 53°07' E 008°41'0 0.0
2018-May-19 00:29N 53°07' E 008°41'0 0.0
2018-May-18 23:59N 53°07' E 008°41'0 0.0
2018-May-18 23:29N 53°07' E 008°41'0 0.0
2018-May-18 22:59N 53°07' E 008°41'0 0.0
2018-May-18 22:29N 53°07' E 008°41'0 0.0
2018-May-18 21:59N 53°07' E 008°41'0 0.0
2018-May-18 21:29N 53°07' E 008°41'0 0.0
2018-May-18 20:59N 53°07' E 008°41'0 0.0
2018-May-18 20:29N 53°07' E 008°41'0 0.0
2018-May-18 19:59N 53°07' E 008°41'0 0.0
2018-May-18 19:29N 53°07' E 008°41'0 0.0
2018-May-18 18:59N 53°07' E 008°41'0 0.0
2018-May-18 18:29N 53°07' E 008°41'0 0.0
2018-May-18 17:59N 53°07' E 008°41'0 0.0
2018-May-18 17:29N 53°07' E 008°41'0 0.0
2018-May-18 16:59N 53°07' E 008°41'0 0.0
2018-May-18 16:29N 53°07' E 008°41'0 0.0
2018-May-18 15:59N 53°07' E 008°41'0 0.0
2018-May-18 15:29N 53°07' E 008°41'0 0.0
2018-May-18 14:59N 53°07' E 008°41'0 0.0
2018-May-18 14:29N 53°07' E 008°41'0 0.0
2018-May-18 13:59N 53°07' E 008°41'0 0.0
2018-May-18 13:30N 53°07' E 008°41'0 0.0
2018-May-18 12:59N 53°07' E 008°41'0 0.0
2018-May-18 12:29N 53°07' E 008°41'0 0.0
2018-May-18 11:59N 53°07' E 008°41'0 0.0
2018-May-18 11:29N 53°07' E 008°41'0 0.0
2018-May-18 10:59N 53°07' E 008°41'0 0.0
2018-May-18 10:29N 53°07' E 008°41'0 0.0
2018-May-18 09:59N 53°07' E 008°41'0 0.0
2018-May-18 09:29N 53°07' E 008°41'0 0.0
2018-May-18 08:59N 53°07' E 008°41'0 0.0
2018-May-18 08:29N 53°07' E 008°41'0 0.0
2018-May-18 08:00N 53°07' E 008°41'0 0.0
2018-May-18 07:29N 53°07' E 008°41'0 0.0
2018-May-18 06:59N 53°07' E 008°41'0 0.0
2018-May-18 06:29N 53°07' E 008°41'0 0.0
2018-May-18 05:59N 53°07' E 008°41'0 0.0
2018-May-18 05:29N 53°07' E 008°41'0 0.0
2018-May-18 04:59N 53°07' E 008°41'0 0.0
2018-May-18 04:29N 53°07' E 008°41'0 0.0
2018-May-18 03:59N 53°07' E 008°41'0 0.0
2018-May-18 03:29N 53°07' E 008°41'0 0.0
2018-May-18 02:59N 53°07' E 008°41'0 0.0
2018-May-18 02:29N 53°07' E 008°41'0 0.0
2018-May-18 01:59N 53°07' E 008°41'0 0.0
2018-May-18 01:29N 53°07' E 008°41'0 0.0
2018-May-18 00:59N 53°07' E 008°41'0 0.0
2018-May-18 00:29N 53°07' E 008°41'0 0.0
2018-May-17 23:59N 53°07' E 008°41'0 0.0
2018-May-17 23:29N 53°07' E 008°41'0 0.0
2018-May-17 22:59N 53°07' E 008°41'0 0.0
2018-May-17 22:29N 53°07' E 008°41'0 0.0
2018-May-17 21:59N 53°07' E 008°41'0 0.0
2018-May-17 21:29N 53°07' E 008°41'0 0.0
2018-May-17 20:59N 53°07' E 008°41'0 0.0
2018-May-17 20:29N 53°07' E 008°41'0 0.0
2018-May-17 19:59N 53°07' E 008°41'0 0.0
2018-May-17 19:29N 53°07' E 008°41'0 0.0
2018-May-17 18:59N 53°07' E 008°41'0 0.0
2018-May-17 18:29N 53°07' E 008°41'0 0.0
2018-May-17 17:59N 53°07' E 008°41'0 0.0
2018-May-17 17:29N 53°07' E 008°41'0 0.0
2018-May-17 16:59N 53°07' E 008°41'0 0.0
2018-May-17 16:29N 53°07' E 008°41'0 0.0
2018-May-17 15:59N 53°07' E 008°41'0 0.0
2018-May-17 15:29N 53°07' E 008°41'0 0.0
2018-May-17 15:00N 53°07' E 008°41'2 4.0
2018-May-17 14:30N 53°08' E 008°38'4 7.0
2018-May-17 14:00N 53°11' E 008°34'4 8.7
2018-May-17 13:30N 53°14' E 008°29'611.6
2018-May-17 13:00N 53°20' E 008°29'611.5
2018-May-17 12:31N 53°25' E 008°30'611.2
2018-May-17 12:00N 53°31' E 008°32'4 7.2
2018-May-17 11:30N 53°34' E 008°32'510.9
2018-May-17 11:00N 53°38' E 008°26'612.3
2018-May-17 10:30N 53°43' E 008°18'4 9.0
2018-May-17 10:00N 53°45' E 008°12'4 8.9
2018-May-17 09:30N 53°49' E 008°07'5 8.3
2018-May-17 08:52N 53°51' E 007°59'4 9.0
2018-May-17 08:27N 53°52' E 007°53'3 0.4
2018-May-17 00:16N 53°55' E 007°51'0 0.0
2018-May-16 16:34N 53°55' E 007°51'0 0.0
2018-May-16 13:43N 53°55' E 007°51'0 0.0
2018-May-16 10:16N 53°55' E 007°51'0 0.0
2018-May-16 09:58N 53°55' E 007°51'0 0.0
2018-May-16 09:28N 53°55' E 007°51'0 0.0
2018-May-16 08:55N 53°55' E 007°51'0 0.0
2018-May-16 08:28N 53°55' E 007°51'0 0.0
2018-May-16 07:55N 53°55' E 007°51'0 0.0
2018-May-16 07:28N 53°55' E 007°51'0 0.1
2018-May-16 06:55N 53°55' E 007°51'0 0.1
2018-May-16 05:16N 53°55' E 007°51'0 0.1
2018-May-16 04:55N 53°55' E 007°51'0 0.0
2018-May-16 04:28N 53°55' E 007°51'0 0.0
2018-May-16 03:58N 53°55' E 007°51'0 0.0
2018-May-16 03:19N 53°55' E 007°51'0 0.0
2018-May-16 02:49N 53°55' E 007°51'0 0.0
2018-May-16 02:28N 53°55' E 007°51'0 0.0
2018-May-16 01:55N 53°55' E 007°51'0 0.0
2018-May-15 21:31N 53°55' E 007°51'0 0.1
2018-May-15 21:25N 53°55' E 007°51'0 0.0
2018-May-15 20:49N 53°55' E 007°51'0 0.0
2018-May-15 16:31N 53°55' E 007°51'0 0.0
2018-May-15 16:22N 53°55' E 007°51'0 0.1
2018-May-15 15:55N 53°55' E 007°51'0 0.0
2018-May-15 15:28N 53°55' E 007°51'0 0.0
2018-May-15 14:58N 53°55' E 007°51'0 0.0
2018-May-15 14:28N 53°55' E 007°51'0 0.0
2018-May-15 13:52N 53°55' E 007°51'0 0.0
2018-May-15 13:25N 53°55' E 007°51'0 0.0
2018-May-15 12:58N 53°55' E 007°51'0 0.4
2018-May-15 12:28N 53°55' E 007°51'0 0.1
2018-May-15 11:58N 53°55' E 007°51'0 0.1
2018-May-15 11:28N 53°55' E 007°51'0 0.0
2018-May-15 10:52N 53°55' E 007°51'0 0.0
2018-May-15 10:28N 53°55' E 007°51'0 0.0
2018-May-15 09:58N 53°55' E 007°51'0 0.0
2018-May-15 09:28N 53°55' E 007°51'0 0.0
2018-May-15 08:58N 53°55' E 007°51'0 0.0
2018-May-15 08:25N 53°55' E 007°51'0 0.0
2018-May-15 07:55N 53°55' E 007°51'0 0.0
2018-May-15 07:28N 53°55' E 007°51'0 0.0
2018-May-15 06:58N 53°55' E 007°51'0 0.0
2018-May-15 06:28N 53°55' E 007°51'0 0.2
2018-May-15 05:46N 53°55' E 007°51'0 0.1
2018-May-15 05:28N 53°55' E 007°51'  

Dump ship's entire track history